首页
METAR-TAF:

METAR-TAF

机场 :

Qaisumah, 沙特阿拉伯

纬度: 28-19N, 经度: 046-07E, 海拔: 358米

当前天气观测

该预报发布于50分钟前的09:00 UTC
风速10节,风向北转西北
温度 20°C
湿度 35%
气压 1014 hPa
能見度: 8000
少量云层高于3500英尺
散云层高于10000英尺

METAR: OEPA 180900Z 33010KT 8000 FEW035 SCT100 20/04 Q1014 NOSIG

时间: 12:50 (09:50 UTC)

预报

该预报发布于10小时和50分钟前的23:00 UTC
预报有效从18日的 00点(UTC)到 19日的 06点(UTC)
风速8节,风向西转西南,有时为18节阵风
能見度: 7000
散云层高于4000英尺
散云层高于10000英尺
短暂存在
从 18日的 00点(UTC)到 18日的 06点(UTC)
能見度: 4000
多云层高于4000英尺
高吹尘, 雨

TAF: OEPA 172300Z 1800/1906 24008G18KT 7000 SCT040 SCT100 TEMPO 1800/1806 4000 BLDU RA BKN040

超过4000个机场的气象观测和天气预报(METAR&TAF报告)。

可查询的气象台以黄色和红色小点在地图上表示。

将鼠标移到小点上方,可查看气象台名称。

然后点击查看天气观测和预报。

如需切换地图:点击带黑十字的绿色按钮放大地图;点击带横线的绿色按钮缩小地图;或者点击绿色箭头查看邻近地区的地图。


METAR-TAF: